sensor_id;sensor_type;location;lat;lon;timestamp;P1;durP1;ratioP1;P2;durP2;ratioP2
7406;SDS011;3745;56.964;24.128;2022-07-21T00:01:24;9.55;;;7.63;;
7406;SDS011;3745;56.964;24.128;2022-07-21T00:03:50;9.15;;;8.25;;
7406;SDS011;3745;56.964;24.128;2022-07-21T00:06:16;8.98;;;8.05;;
7406;SDS011;3745;56.964;24.128;2022-07-21T00:08:41;13.77;;;11.70;;
7406;SDS011;3745;56.964;24.128;2022-07-21T00:11:08;22.42;;;16.20;;
7406;SDS011;3745;56.964;24.128;2022-07-21T00:13:34;24.88;;;20.08;;
7406;SDS011;3745;56.964;24.128;2022-07-21T00:16:00;26.23;;;17.55;;
7406;SDS011;3745;56.964;24.128;2022-07-21T00:18:26;21.52;;;17.05;;
7406;SDS011;3745;56.964;24.128;2022-07-21T00:20:55;20.10;;;16.33;;
7406;SDS011;3745;56.964;24.128;2022-07-21T00:23:22;24.65;;;16.88;;
7406;SDS011;3745;56.964;24.128;2022-07-21T00:25:49;16.63;;;13.52;;
7406;SDS011;3745;56.964;24.128;2022-07-21T00:28:15;18.92;;;15.63;;
7406;SDS011;3745;56.964;24.128;2022-07-21T00:30:40;18.52;;;14.35;;
7406;SDS011;3745;56.964;24.128;2022-07-21T00:33:06;16.20;;;13.68;;
7406;SDS011;3745;56.964;24.128;2022-07-21T00:35:32;18.50;;;14.75;;
7406;SDS011;3745;56.964;24.128;2022-07-21T00:37:57;12.75;;;11.45;;
7406;SDS011;3745;56.964;24.128;2022-07-21T00:40:23;10.52;;;9.43;;
7406;SDS011;3745;56.964;24.128;2022-07-21T00:42:49;12.27;;;10.90;;
7406;SDS011;3745;56.964;24.128;2022-07-21T00:45:15;13.13;;;10.20;;
7406;SDS011;3745;56.964;24.128;2022-07-21T00:47:41;11.07;;;9.85;;
7406;SDS011;3745;56.964;24.128;2022-07-21T00:50:08;11.68;;;9.02;;
7406;SDS011;3745;56.964;24.128;2022-07-21T00:52:36;11.35;;;9.23;;
7406;SDS011;3745;56.964;24.128;2022-07-21T00:55:02;12.35;;;9.80;;
7406;SDS011;3745;56.964;24.128;2022-07-21T00:57:29;13.95;;;11.18;;
7406;SDS011;3745;56.964;24.128;2022-07-21T00:59:55;21.05;;;13.32;;
7406;SDS011;3745;56.964;24.128;2022-07-21T01:02:20;27.90;;;15.43;;
7406;SDS011;3745;56.964;24.128;2022-07-21T01:04:46;31.20;;;17.50;;
7406;SDS011;3745;56.964;24.128;2022-07-21T01:07:12;33.17;;;18.38;;
7406;SDS011;3745;56.964;24.128;2022-07-21T01:09:38;29.45;;;17.67;;
7406;SDS011;3745;56.964;24.128;2022-07-21T01:12:04;30.05;;;18.80;;
7406;SDS011;3745;56.964;24.128;2022-07-21T01:14:30;47.50;;;26.80;;
7406;SDS011;3745;56.964;24.128;2022-07-21T01:16:57;59.20;;;30.80;;
7406;SDS011;3745;56.964;24.128;2022-07-21T01:19:23;67.85;;;34.03;;
7406;SDS011;3745;56.964;24.128;2022-07-21T01:21:49;66.07;;;34.10;;
7406;SDS011;3745;56.964;24.128;2022-07-21T01:24:17;62.25;;;31.77;;
7406;SDS011;3745;56.964;24.128;2022-07-21T01:26:43;61.10;;;32.30;;
7406;SDS011;3745;56.964;24.128;2022-07-21T01:29:10;67.60;;;36.80;;
7406;SDS011;3745;56.964;24.128;2022-07-21T01:31:40;57.83;;;31.40;;
7406;SDS011;3745;56.964;24.128;2022-07-21T01:34:07;58.63;;;33.45;;
7406;SDS011;3745;56.964;24.128;2022-07-21T01:36:33;67.70;;;33.75;;
7406;SDS011;3745;56.964;24.128;2022-07-21T01:39:00;72.72;;;40.15;;
7406;SDS011;3745;56.964;24.128;2022-07-21T01:41:44;65.15;;;34.42;;
7406;SDS011;3745;56.964;24.128;2022-07-21T01:44:12;50.67;;;29.13;;
7406;SDS011;3745;56.964;24.128;2022-07-21T01:46:40;49.78;;;28.10;;
7406;SDS011;3745;56.964;24.128;2022-07-21T01:49:09;40.67;;;22.13;;
7406;SDS011;3745;56.964;24.128;2022-07-21T01:51:36;18.40;;;13.18;;
7406;SDS011;3745;56.964;24.128;2022-07-21T01:54:02;17.55;;;12.95;;
7406;SDS011;3745;56.964;24.128;2022-07-21T01:56:29;16.38;;;11.70;;
7406;SDS011;3745;56.964;24.128;2022-07-21T01:58:55;13.68;;;11.25;;
7406;SDS011;3745;56.964;24.128;2022-07-21T02:01:23;12.65;;;9.93;;
7406;SDS011;3745;56.964;24.128;2022-07-21T02:03:54;12.93;;;8.95;;
7406;SDS011;3745;56.964;24.128;2022-07-21T02:06:21;12.15;;;8.75;;
7406;SDS011;3745;56.964;24.128;2022-07-21T02:08:48;8.40;;;7.30;;
7406;SDS011;3745;56.964;24.128;2022-07-21T02:11:14;8.77;;;7.57;;
7406;SDS011;3745;56.964;24.128;2022-07-21T02:13:41;8.60;;;7.35;;
7406;SDS011;3745;56.964;24.128;2022-07-21T02:16:07;11.18;;;7.90;;
7406;SDS011;3745;56.964;24.128;2022-07-21T02:18:33;12.38;;;9.75;;
7406;SDS011;3745;56.964;24.128;2022-07-21T02:20:59;10.10;;;8.15;;
7406;SDS011;3745;56.964;24.128;2022-07-21T02:23:25;8.00;;;7.25;;
7406;SDS011;3745;56.964;24.128;2022-07-21T02:25:51;8.75;;;7.93;;
7406;SDS011;3745;56.964;24.128;2022-07-21T02:28:18;9.70;;;7.55;;
7406;SDS011;3745;56.964;24.128;2022-07-21T02:30:44;8.13;;;5.65;;
7406;SDS011;3745;56.964;24.128;2022-07-21T02:33:10;9.23;;;6.75;;
7406;SDS011;3745;56.964;24.128;2022-07-21T02:35:36;7.53;;;6.28;;
7406;SDS011;3745;56.964;24.128;2022-07-21T02:38:03;7.13;;;6.43;;
7406;SDS011;3745;56.964;24.128;2022-07-21T02:40:29;6.63;;;5.32;;
7406;SDS011;3745;56.964;24.128;2022-07-21T02:42:54;6.55;;;5.68;;
7406;SDS011;3745;56.964;24.128;2022-07-21T02:45:20;6.35;;;5.75;;
7406;SDS011;3745;56.964;24.128;2022-07-21T02:47:49;6.28;;;5.18;;
7406;SDS011;3745;56.964;24.128;2022-07-21T02:50:20;6.57;;;5.47;;
7406;SDS011;3745;56.964;24.128;2022-07-21T02:52:48;6.43;;;5.75;;
7406;SDS011;3745;56.964;24.128;2022-07-21T02:55:14;6.10;;;5.50;;
7406;SDS011;3745;56.964;24.128;2022-07-21T02:57:40;7.78;;;5.95;;
7406;SDS011;3745;56.964;24.128;2022-07-21T03:00:06;6.68;;;5.97;;
7406;SDS011;3745;56.964;24.128;2022-07-21T03:02:34;7.55;;;5.97;;
7406;SDS011;3745;56.964;24.128;2022-07-21T03:04:59;6.82;;;5.97;;
7406;SDS011;3745;56.964;24.128;2022-07-21T03:07:25;8.70;;;5.72;;
7406;SDS011;3745;56.964;24.128;2022-07-21T03:09:51;6.25;;;5.78;;
7406;SDS011;3745;56.964;24.128;2022-07-21T03:12:17;7.65;;;5.93;;
7406;SDS011;3745;56.964;24.128;2022-07-21T03:14:42;8.75;;;5.97;;
7406;SDS011;3745;56.964;24.128;2022-07-21T03:17:08;8.13;;;6.13;;
7406;SDS011;3745;56.964;24.128;2022-07-21T03:19:34;6.95;;;5.90;;
7406;SDS011;3745;56.964;24.128;2022-07-21T03:21:59;6.57;;;5.70;;
7406;SDS011;3745;56.964;24.128;2022-07-21T03:24:25;7.35;;;5.72;;
7406;SDS011;3745;56.964;24.128;2022-07-21T03:26:51;5.63;;;4.95;;
7406;SDS011;3745;56.964;24.128;2022-07-21T03:29:16;6.03;;;5.53;;
7406;SDS011;3745;56.964;24.128;2022-07-21T03:31:42;8.38;;;6.03;;
7406;SDS011;3745;56.964;24.128;2022-07-21T03:34:08;7.78;;;6.03;;
7406;SDS011;3745;56.964;24.128;2022-07-21T03:36:33;12.55;;;6.65;;
7406;SDS011;3745;56.964;24.128;2022-07-21T03:38:59;8.70;;;6.43;;
7406;SDS011;3745;56.964;24.128;2022-07-21T03:41:25;9.43;;;6.75;;
7406;SDS011;3745;56.964;24.128;2022-07-21T03:43:50;9.65;;;5.70;;
7406;SDS011;3745;56.964;24.128;2022-07-21T03:46:16;9.10;;;5.82;;
7406;SDS011;3745;56.964;24.128;2022-07-21T03:48:42;6.45;;;5.85;;
7406;SDS011;3745;56.964;24.128;2022-07-21T03:51:07;8.98;;;5.82;;
7406;SDS011;3745;56.964;24.128;2022-07-21T03:53:34;6.85;;;5.82;;
7406;SDS011;3745;56.964;24.128;2022-07-21T03:56:00;10.50;;;6.30;;
7406;SDS011;3745;56.964;24.128;2022-07-21T03:58:27;9.80;;;5.85;;
7406;SDS011;3745;56.964;24.128;2022-07-21T04:00:52;9.82;;;5.95;;
7406;SDS011;3745;56.964;24.128;2022-07-21T04:03:18;6.38;;;5.55;;
7406;SDS011;3745;56.964;24.128;2022-07-21T04:05:44;7.00;;;5.28;;
7406;SDS011;3745;56.964;24.128;2022-07-21T04:08:10;6.47;;;5.13;;
7406;SDS011;3745;56.964;24.128;2022-07-21T04:10:38;9.27;;;6.13;;
7406;SDS011;3745;56.964;24.128;2022-07-21T04:13:05;5.70;;;5.13;;
7406;SDS011;3745;56.964;24.128;2022-07-21T04:15:33;5.72;;;5.20;;
7406;SDS011;3745;56.964;24.128;2022-07-21T04:17:59;5.78;;;5.28;;
7406;SDS011;3745;56.964;24.128;2022-07-21T04:20:25;5.38;;;4.95;;
7406;SDS011;3745;56.964;24.128;2022-07-21T04:22:51;9.35;;;4.97;;
7406;SDS011;3745;56.964;24.128;2022-07-21T04:25:17;6.53;;;5.13;;
7406;SDS011;3745;56.964;24.128;2022-07-21T04:27:44;10.30;;;5.07;;
7406;SDS011;3745;56.964;24.128;2022-07-21T04:30:13;8.05;;;5.30;;
7406;SDS011;3745;56.964;24.128;2022-07-21T04:32:40;5.55;;;4.97;;
7406;SDS011;3745;56.964;24.128;2022-07-21T04:35:06;11.98;;;4.78;;
7406;SDS011;3745;56.964;24.128;2022-07-21T04:37:33;7.90;;;5.03;;
7406;SDS011;3745;56.964;24.128;2022-07-21T04:39:59;5.97;;;4.63;;
7406;SDS011;3745;56.964;24.128;2022-07-21T04:42:25;5.90;;;4.82;;
7406;SDS011;3745;56.964;24.128;2022-07-21T04:44:51;6.32;;;4.60;;
7406;SDS011;3745;56.964;24.128;2022-07-21T04:47:17;5.05;;;4.35;;
7406;SDS011;3745;56.964;24.128;2022-07-21T04:49:42;5.35;;;4.63;;
7406;SDS011;3745;56.964;24.128;2022-07-21T04:52:08;5.93;;;4.68;;
7406;SDS011;3745;56.964;24.128;2022-07-21T04:54:34;7.75;;;4.85;;
7406;SDS011;3745;56.964;24.128;2022-07-21T04:57:00;5.13;;;4.82;;
7406;SDS011;3745;56.964;24.128;2022-07-21T04:59:28;5.93;;;5.10;;
7406;SDS011;3745;56.964;24.128;2022-07-21T05:01:55;6.43;;;5.53;;
7406;SDS011;3745;56.964;24.128;2022-07-21T05:04:21;5.60;;;4.93;;
7406;SDS011;3745;56.964;24.128;2022-07-21T05:06:47;5.40;;;5.00;;
7406;SDS011;3745;56.964;24.128;2022-07-21T05:09:12;5.05;;;4.65;;
7406;SDS011;3745;56.964;24.128;2022-07-21T05:11:39;5.72;;;5.00;;
7406;SDS011;3745;56.964;24.128;2022-07-21T05:14:05;6.68;;;5.18;;
7406;SDS011;3745;56.964;24.128;2022-07-21T05:16:31;6.70;;;5.35;;
7406;SDS011;3745;56.964;24.128;2022-07-21T05:18:57;6.60;;;5.70;;
7406;SDS011;3745;56.964;24.128;2022-07-21T05:21:22;5.63;;;5.15;;
7406;SDS011;3745;56.964;24.128;2022-07-21T05:23:48;5.55;;;5.13;;
7406;SDS011;3745;56.964;24.128;2022-07-21T05:26:14;5.55;;;4.85;;
7406;SDS011;3745;56.964;24.128;2022-07-21T05:28:40;7.13;;;5.90;;
7406;SDS011;3745;56.964;24.128;2022-07-21T05:31:06;6.35;;;5.10;;
7406;SDS011;3745;56.964;24.128;2022-07-21T05:33:33;10.68;;;6.60;;
7406;SDS011;3745;56.964;24.128;2022-07-21T05:35:59;8.45;;;5.90;;
7406;SDS011;3745;56.964;24.128;2022-07-21T05:38:26;7.47;;;6.45;;
7406;SDS011;3745;56.964;24.128;2022-07-21T05:40:57;7.82;;;6.15;;
7406;SDS011;3745;56.964;24.128;2022-07-21T05:43:30;10.30;;;8.35;;
7406;SDS011;3745;56.964;24.128;2022-07-21T05:45:57;8.50;;;7.38;;
7406;SDS011;3745;56.964;24.128;2022-07-21T05:48:32;10.13;;;7.18;;
7406;SDS011;3745;56.964;24.128;2022-07-21T05:50:59;9.70;;;6.78;;
7406;SDS011;3745;56.964;24.128;2022-07-21T05:53:25;11.48;;;8.95;;
7406;SDS011;3745;56.964;24.128;2022-07-21T05:55:50;16.88;;;10.60;;
7406;SDS011;3745;56.964;24.128;2022-07-21T05:58:16;15.68;;;10.98;;
7406;SDS011;3745;56.964;24.128;2022-07-21T06:00:44;13.57;;;11.05;;
7406;SDS011;3745;56.964;24.128;2022-07-21T06:03:29;11.60;;;10.35;;
7406;SDS011;3745;56.964;24.128;2022-07-21T06:05:55;11.93;;;10.73;;
7406;SDS011;3745;56.964;24.128;2022-07-21T06:08:21;15.93;;;11.10;;
7406;SDS011;3745;56.964;24.128;2022-07-21T06:10:46;16.40;;;10.55;;
7406;SDS011;3745;56.964;24.128;2022-07-21T06:13:12;16.40;;;11.77;;
7406;SDS011;3745;56.964;24.128;2022-07-21T06:15:38;16.08;;;12.82;;
7406;SDS011;3745;56.964;24.128;2022-07-21T06:18:03;23.02;;;16.58;;
7406;SDS011;3745;56.964;24.128;2022-07-21T06:20:29;20.90;;;16.38;;
7406;SDS011;3745;56.964;24.128;2022-07-21T06:22:55;16.73;;;12.88;;
7406;SDS011;3745;56.964;24.128;2022-07-21T06:25:20;16.30;;;12.82;;
7406;SDS011;3745;56.964;24.128;2022-07-21T06:27:46;17.27;;;12.10;;
7406;SDS011;3745;56.964;24.128;2022-07-21T06:30:12;17.90;;;12.18;;
7406;SDS011;3745;56.964;24.128;2022-07-21T06:32:38;22.25;;;12.02;;
7406;SDS011;3745;56.964;24.128;2022-07-21T06:35:05;15.52;;;10.95;;
7406;SDS011;3745;56.964;24.128;2022-07-21T06:37:31;13.07;;;10.27;;
7406;SDS011;3745;56.964;24.128;2022-07-21T06:39:57;9.65;;;8.75;;
7406;SDS011;3745;56.964;24.128;2022-07-21T06:42:24;15.57;;;10.10;;
7406;SDS011;3745;56.964;24.128;2022-07-21T06:44:50;11.10;;;9.38;;
7406;SDS011;3745;56.964;24.128;2022-07-21T06:47:15;14.43;;;9.68;;
7406;SDS011;3745;56.964;24.128;2022-07-21T06:49:41;10.63;;;9.57;;
7406;SDS011;3745;56.964;24.128;2022-07-21T06:52:07;16.50;;;10.45;;
7406;SDS011;3745;56.964;24.128;2022-07-21T06:54:32;12.45;;;11.15;;
7406;SDS011;3745;56.964;24.128;2022-07-21T06:56:58;14.05;;;10.30;;
7406;SDS011;3745;56.964;24.128;2022-07-21T06:59:24;13.50;;;10.60;;
7406;SDS011;3745;56.964;24.128;2022-07-21T07:01:49;13.35;;;11.27;;
7406;SDS011;3745;56.964;24.128;2022-07-21T07:04:15;12.27;;;10.13;;
7406;SDS011;3745;56.964;24.128;2022-07-21T07:06:41;15.25;;;11.02;;
7406;SDS011;3745;56.964;24.128;2022-07-21T07:09:06;15.75;;;13.27;;
7406;SDS011;3745;56.964;24.128;2022-07-21T07:11:32;18.67;;;11.45;;
7406;SDS011;3745;56.964;24.128;2022-07-21T07:14:02;16.10;;;13.50;;
7406;SDS011;3745;56.964;24.128;2022-07-21T07:16:28;22.05;;;14.77;;
7406;SDS011;3745;56.964;24.128;2022-07-21T07:18:54;13.85;;;12.43;;
7406;SDS011;3745;56.964;24.128;2022-07-21T07:21:19;20.13;;;15.45;;
7406;SDS011;3745;56.964;24.128;2022-07-21T07:23:45;20.70;;;18.02;;
7406;SDS011;3745;56.964;24.128;2022-07-21T07:26:11;14.32;;;12.77;;
7406;SDS011;3745;56.964;24.128;2022-07-21T07:28:37;13.05;;;11.65;;
7406;SDS011;3745;56.964;24.128;2022-07-21T07:31:02;12.55;;;11.18;;
7406;SDS011;3745;56.964;24.128;2022-07-21T07:33:28;11.10;;;9.95;;
7406;SDS011;3745;56.964;24.128;2022-07-21T07:35:54;13.38;;;9.48;;
7406;SDS011;3745;56.964;24.128;2022-07-21T07:38:21;12.60;;;10.40;;
7406;SDS011;3745;56.964;24.128;2022-07-21T07:40:47;12.63;;;11.48;;
7406;SDS011;3745;56.964;24.128;2022-07-21T07:43:12;16.00;;;12.25;;
7406;SDS011;3745;56.964;24.128;2022-07-21T07:45:38;16.73;;;11.80;;
7406;SDS011;3745;56.964;24.128;2022-07-21T07:48:04;17.05;;;13.63;;
7406;SDS011;3745;56.964;24.128;2022-07-21T07:50:30;16.15;;;13.93;;
7406;SDS011;3745;56.964;24.128;2022-07-21T07:52:56;12.65;;;10.80;;
7406;SDS011;3745;56.964;24.128;2022-07-21T07:55:21;11.05;;;9.50;;
7406;SDS011;3745;56.964;24.128;2022-07-21T07:57:47;15.73;;;11.38;;
7406;SDS011;3745;56.964;24.128;2022-07-21T08:00:14;14.23;;;10.77;;
7406;SDS011;3745;56.964;24.128;2022-07-21T08:02:41;11.52;;;9.30;;
7406;SDS011;3745;56.964;24.128;2022-07-21T08:05:07;11.73;;;10.35;;
7406;SDS011;3745;56.964;24.128;2022-07-21T08:07:37;16.00;;;8.95;;
7406;SDS011;3745;56.964;24.128;2022-07-21T08:10:05;14.77;;;8.90;;
7406;SDS011;3745;56.964;24.128;2022-07-21T08:12:32;14.90;;;9.13;;
7406;SDS011;3745;56.964;24.128;2022-07-21T08:14:58;10.48;;;8.30;;
7406;SDS011;3745;56.964;24.128;2022-07-21T08:17:24;10.27;;;7.13;;
7406;SDS011;3745;56.964;24.128;2022-07-21T08:19:49;9.98;;;6.25;;
7406;SDS011;3745;56.964;24.128;2022-07-21T08:22:15;8.13;;;6.97;;
7406;SDS011;3745;56.964;24.128;2022-07-21T08:24:41;9.95;;;7.43;;
7406;SDS011;3745;56.964;24.128;2022-07-21T08:27:07;7.80;;;7.10;;
7406;SDS011;3745;56.964;24.128;2022-07-21T08:29:33;9.63;;;8.43;;
7406;SDS011;3745;56.964;24.128;2022-07-21T08:31:59;13.05;;;10.48;;
7406;SDS011;3745;56.964;24.128;2022-07-21T08:34:25;11.35;;;9.32;;
7406;SDS011;3745;56.964;24.128;2022-07-21T08:36:51;12.88;;;8.32;;
7406;SDS011;3745;56.964;24.128;2022-07-21T08:39:16;8.70;;;7.75;;
7406;SDS011;3745;56.964;24.128;2022-07-21T08:41:42;9.80;;;8.27;;
7406;SDS011;3745;56.964;24.128;2022-07-21T08:44:08;10.50;;;9.02;;
7406;SDS011;3745;56.964;24.128;2022-07-21T08:46:36;8.32;;;6.55;;
7406;SDS011;3745;56.964;24.128;2022-07-21T08:49:06;7.45;;;6.63;;
7406;SDS011;3745;56.964;24.128;2022-07-21T08:51:33;11.10;;;7.72;;
7406;SDS011;3745;56.964;24.128;2022-07-21T08:54:00;12.30;;;6.28;;
7406;SDS011;3745;56.964;24.128;2022-07-21T08:56:26;5.70;;;5.30;;
7406;SDS011;3745;56.964;24.128;2022-07-21T08:58:52;4.80;;;4.50;;
7406;SDS011;3745;56.964;24.128;2022-07-21T09:01:17;4.95;;;4.50;;
7406;SDS011;3745;56.964;24.128;2022-07-21T09:03:43;7.05;;;4.60;;
7406;SDS011;3745;56.964;24.128;2022-07-21T09:06:12;4.95;;;4.50;;
7406;SDS011;3745;56.964;24.128;2022-07-21T09:08:42;5.82;;;5.00;;
7406;SDS011;3745;56.964;24.128;2022-07-21T09:11:28;4.95;;;4.55;;
7406;SDS011;3745;56.964;24.128;2022-07-21T09:14:13;5.18;;;4.47;;
7406;SDS011;3745;56.964;24.128;2022-07-21T09:16:51;4.28;;;3.97;;
7406;SDS011;3745;56.964;24.128;2022-07-21T09:21:49;7.07;;;3.90;;
7406;SDS011;3745;56.964;24.128;2022-07-21T09:27:08;4.70;;;3.60;;
7406;SDS011;3745;56.964;24.128;2022-07-21T09:34:51;4.63;;;4.18;;
7406;SDS011;3745;56.964;24.128;2022-07-21T09:37:19;4.20;;;3.90;;
7406;SDS011;3745;56.964;24.128;2022-07-21T09:39:47;4.40;;;4.03;;
7406;SDS011;3745;56.964;24.128;2022-07-21T09:42:27;4.50;;;4.15;;
7406;SDS011;3745;56.964;24.128;2022-07-21T09:44:56;6.65;;;4.40;;
7406;SDS011;3745;56.964;24.128;2022-07-21T09:47:24;3.97;;;3.60;;
7406;SDS011;3745;56.964;24.128;2022-07-21T09:49:52;3.70;;;3.40;;
7406;SDS011;3745;56.964;24.128;2022-07-21T09:52:22;3.47;;;3.28;;
7406;SDS011;3745;56.964;24.128;2022-07-21T09:54:52;4.00;;;3.70;;
7406;SDS011;3745;56.964;24.128;2022-07-21T09:57:19;3.67;;;3.42;;
7406;SDS011;3745;56.964;24.128;2022-07-21T09:59:46;4.07;;;3.70;;
7406;SDS011;3745;56.964;24.128;2022-07-21T10:02:18;3.85;;;3.60;;
7406;SDS011;3745;56.964;24.128;2022-07-21T10:04:51;5.53;;;4.07;;
7406;SDS011;3745;56.964;24.128;2022-07-21T10:07:24;3.58;;;3.28;;
7406;SDS011;3745;56.964;24.128;2022-07-21T10:09:51;3.75;;;3.55;;
7406;SDS011;3745;56.964;24.128;2022-07-21T10:12:17;4.00;;;3.53;;
7406;SDS011;3745;56.964;24.128;2022-07-21T10:14:44;3.78;;;3.50;;
7406;SDS011;3745;56.964;24.128;2022-07-21T10:17:12;3.40;;;3.20;;
7406;SDS011;3745;56.964;24.128;2022-07-21T10:22:43;5.57;;;3.47;;
7406;SDS011;3745;56.964;24.128;2022-07-21T10:25:24;3.33;;;3.13;;
7406;SDS011;3745;56.964;24.128;2022-07-21T10:30:42;3.42;;;3.20;;
7406;SDS011;3745;56.964;24.128;2022-07-21T10:33:10;4.10;;;3.08;;
7406;SDS011;3745;56.964;24.128;2022-07-21T10:35:44;3.03;;;2.67;;
7406;SDS011;3745;56.964;24.128;2022-07-21T10:38:31;3.20;;;3.03;;
7406;SDS011;3745;56.964;24.128;2022-07-21T10:40:58;2.85;;;2.72;;
7406;SDS011;3745;56.964;24.128;2022-07-21T10:45:51;3.25;;;3.05;;
7406;SDS011;3745;56.964;24.128;2022-07-21T10:51:09;3.50;;;3.20;;
7406;SDS011;3745;56.964;24.128;2022-07-21T10:53:36;3.80;;;3.40;;
7406;SDS011;3745;56.964;24.128;2022-07-21T10:56:02;3.25;;;3.05;;
7406;SDS011;3745;56.964;24.128;2022-07-21T10:58:29;3.30;;;3.10;;
7406;SDS011;3745;56.964;24.128;2022-07-21T11:03:41;3.13;;;2.90;;
7406;SDS011;3745;56.964;24.128;2022-07-21T11:06:12;3.40;;;3.20;;
7406;SDS011;3745;56.964;24.128;2022-07-21T11:08:44;3.33;;;3.00;;
7406;SDS011;3745;56.964;24.128;2022-07-21T11:11:16;3.50;;;3.30;;
7406;SDS011;3745;56.964;24.128;2022-07-21T11:22:15;3.45;;;2.80;;
7406;SDS011;3745;56.964;24.128;2022-07-21T11:24:56;3.70;;;3.22;;
7406;SDS011;3745;56.964;24.128;2022-07-21T11:27:24;3.42;;;2.95;;
7406;SDS011;3745;56.964;24.128;2022-07-21T11:29:55;3.97;;;3.30;;
7406;SDS011;3745;56.964;24.128;2022-07-21T11:32:23;3.10;;;2.90;;
7406;SDS011;3745;56.964;24.128;2022-07-21T11:34:50;3.83;;;3.63;;
7406;SDS011;3745;56.964;24.128;2022-07-21T11:37:19;4.75;;;3.22;;
7406;SDS011;3745;56.964;24.128;2022-07-21T11:39:51;5.57;;;3.60;;
7406;SDS011;3745;56.964;24.128;2022-07-21T11:42:17;8.18;;;3.58;;
7406;SDS011;3745;56.964;24.128;2022-07-21T11:44:43;5.13;;;3.67;;
7406;SDS011;3745;56.964;24.128;2022-07-21T11:47:10;3.50;;;3.30;;
7406;SDS011;3745;56.964;24.128;2022-07-21T11:49:38;4.13;;;3.00;;
7406;SDS011;3745;56.964;24.128;2022-07-21T11:52:12;6.05;;;3.72;;
7406;SDS011;3745;56.964;24.128;2022-07-21T11:54:43;11.10;;;6.15;;
7406;SDS011;3745;56.964;24.128;2022-07-21T11:57:10;6.95;;;3.53;;
7406;SDS011;3745;56.964;24.128;2022-07-21T11:59:37;4.20;;;3.78;;
7406;SDS011;3745;56.964;24.128;2022-07-21T12:04:48;7.45;;;4.03;;
7406;SDS011;3745;56.964;24.128;2022-07-21T12:07:17;3.72;;;3.42;;
7406;SDS011;3745;56.964;24.128;2022-07-21T12:09:51;4.53;;;3.17;;
7406;SDS011;3745;56.964;24.128;2022-07-21T12:12:38;3.35;;;3.10;;
7406;SDS011;3745;56.964;24.128;2022-07-21T12:15:24;5.82;;;3.75;;
7406;SDS011;3745;56.964;24.128;2022-07-21T12:17:57;3.92;;;3.60;;
7406;SDS011;3745;56.964;24.128;2022-07-21T12:20:27;3.80;;;3.50;;
7406;SDS011;3745;56.964;24.128;2022-07-21T12:22:52;6.60;;;3.80;;
7406;SDS011;3745;56.964;24.128;2022-07-21T12:25:29;3.95;;;3.65;;
7406;SDS011;3745;56.964;24.128;2022-07-21T12:28:05;4.88;;;3.45;;
7406;SDS011;3745;56.964;24.128;2022-07-21T12:30:33;6.38;;;3.90;;
7406;SDS011;3745;56.964;24.128;2022-07-21T12:33:13;3.97;;;3.70;;
7406;SDS011;3745;56.964;24.128;2022-07-21T12:35:44;10.05;;;3.42;;
7406;SDS011;3745;56.964;24.128;2022-07-21T12:38:22;4.65;;;3.50;;
7406;SDS011;3745;56.964;24.128;2022-07-21T12:41:00;6.47;;;3.92;;
7406;SDS011;3745;56.964;24.128;2022-07-21T12:43:25;5.18;;;3.60;;
7406;SDS011;3745;56.964;24.128;2022-07-21T12:45:59;10.93;;;4.00;;
7406;SDS011;3745;56.964;24.128;2022-07-21T12:48:34;4.40;;;3.40;;
7406;SDS011;3745;56.964;24.128;2022-07-21T12:51:15;4.55;;;3.42;;
7406;SDS011;3745;56.964;24.128;2022-07-21T12:53:49;4.88;;;3.38;;
7406;SDS011;3745;56.964;24.128;2022-07-21T12:56:20;4.03;;;3.75;;
7406;SDS011;3745;56.964;24.128;2022-07-21T12:58:51;6.95;;;4.47;;
7406;SDS011;3745;56.964;24.128;2022-07-21T13:01:18;8.45;;;5.25;;
7406;SDS011;3745;56.964;24.128;2022-07-21T13:03:45;5.55;;;4.30;;
7406;SDS011;3745;56.964;24.128;2022-07-21T13:06:11;5.40;;;3.92;;
7406;SDS011;3745;56.964;24.128;2022-07-21T13:08:39;4.07;;;3.78;;
7406;SDS011;3745;56.964;24.128;2022-07-21T13:11:05;5.45;;;3.30;;
7406;SDS011;3745;56.964;24.128;2022-07-21T13:13:35;6.00;;;3.35;;
7406;SDS011;3745;56.964;24.128;2022-07-21T13:16:01;4.00;;;3.63;;
7406;SDS011;3745;56.964;24.128;2022-07-21T13:18:27;4.53;;;3.13;;
7406;SDS011;3745;56.964;24.128;2022-07-21T13:20:54;5.40;;;3.10;;
7406;SDS011;3745;56.964;24.128;2022-07-21T13:23:22;5.35;;;3.60;;
7406;SDS011;3745;56.964;24.128;2022-07-21T13:25:49;11.25;;;3.65;;
7406;SDS011;3745;56.964;24.128;2022-07-21T13:28:15;5.53;;;4.40;;
7406;SDS011;3745;56.964;24.128;2022-07-21T13:30:42;5.00;;;3.55;;
7406;SDS011;3745;56.964;24.128;2022-07-21T13:33:10;4.68;;;3.70;;
7406;SDS011;3745;56.964;24.128;2022-07-21T13:35:36;3.90;;;3.55;;
7406;SDS011;3745;56.964;24.128;2022-07-21T13:38:02;7.85;;;3.45;;
7406;SDS011;3745;56.964;24.128;2022-07-21T13:40:28;6.15;;;3.63;;
7406;SDS011;3745;56.964;24.128;2022-07-21T13:42:55;4.22;;;3.40;;
7406;SDS011;3745;56.964;24.128;2022-07-21T13:45:20;4.82;;;3.67;;
7406;SDS011;3745;56.964;24.128;2022-07-21T13:47:47;3.58;;;3.38;;
7406;SDS011;3745;56.964;24.128;2022-07-21T13:50:13;3.35;;;3.05;;
7406;SDS011;3745;56.964;24.128;2022-07-21T13:52:39;3.70;;;3.47;;
7406;SDS011;3745;56.964;24.128;2022-07-21T13:55:06;3.97;;;3.47;;
7406;SDS011;3745;56.964;24.128;2022-07-21T13:57:34;4.35;;;3.25;;
7406;SDS011;3745;56.964;24.128;2022-07-21T14:00:00;4.20;;;3.83;;
7406;SDS011;3745;56.964;24.128;2022-07-21T14:02:29;4.75;;;4.03;;
7406;SDS011;3745;56.964;24.128;2022-07-21T14:04:55;5.85;;;3.88;;
7406;SDS011;3745;56.964;24.128;2022-07-21T14:07:21;3.75;;;3.53;;
7406;SDS011;3745;56.964;24.128;2022-07-21T14:09:46;6.35;;;3.35;;
7406;SDS011;3745;56.964;24.128;2022-07-21T14:12:12;6.00;;;3.38;;
7406;SDS011;3745;56.964;24.128;2022-07-21T14:14:39;3.80;;;3.50;;
7406;SDS011;3745;56.964;24.128;2022-07-21T14:17:07;7.47;;;4.00;;
7406;SDS011;3745;56.964;24.128;2022-07-21T14:19:36;8.65;;;3.60;;
7406;SDS011;3745;56.964;24.128;2022-07-21T14:22:01;4.60;;;3.70;;
7406;SDS011;3745;56.964;24.128;2022-07-21T14:24:34;6.20;;;4.05;;
7406;SDS011;3745;56.964;24.128;2022-07-21T14:27:18;8.30;;;4.50;;
7406;SDS011;3745;56.964;24.128;2022-07-21T14:29:44;7.65;;;4.30;;
7406;SDS011;3745;56.964;24.128;2022-07-21T14:32:09;6.63;;;4.25;;
7406;SDS011;3745;56.964;24.128;2022-07-21T14:34:35;4.78;;;3.72;;
7406;SDS011;3745;56.964;24.128;2022-07-21T14:37:01;5.30;;;4.00;;
7406;SDS011;3745;56.964;24.128;2022-07-21T14:39:27;4.90;;;3.70;;
7406;SDS011;3745;56.964;24.128;2022-07-21T14:41:53;5.05;;;3.88;;
7406;SDS011;3745;56.964;24.128;2022-07-21T14:44:18;5.50;;;3.63;;
7406;SDS011;3745;56.964;24.128;2022-07-21T14:46:44;10.45;;;5.07;;
7406;SDS011;3745;56.964;24.128;2022-07-21T14:49:10;6.88;;;4.68;;
7406;SDS011;3745;56.964;24.128;2022-07-21T14:51:36;8.18;;;5.25;;
7406;SDS011;3745;56.964;24.128;2022-07-21T14:54:02;6.40;;;4.55;;
7406;SDS011;3745;56.964;24.128;2022-07-21T14:56:28;6.78;;;4.07;;
7406;SDS011;3745;56.964;24.128;2022-07-21T14:58:53;4.57;;;4.10;;
7406;SDS011;3745;56.964;24.128;2022-07-21T15:01:20;7.95;;;3.95;;
7406;SDS011;3745;56.964;24.128;2022-07-21T15:06:25;6.18;;;4.72;;
7406;SDS011;3745;56.964;24.128;2022-07-21T15:08:50;6.47;;;4.93;;
7406;SDS011;3745;56.964;24.128;2022-07-21T15:11:16;5.55;;;4.97;;
7406;SDS011;3745;56.964;24.128;2022-07-21T15:13:43;6.85;;;4.93;;
7406;SDS011;3745;56.964;24.128;2022-07-21T15:29:38;8.70;;;4.75;;
7406;SDS011;3745;56.964;24.128;2022-07-21T15:32:14;8.43;;;5.20;;
7406;SDS011;3745;56.964;24.128;2022-07-21T15:34:40;9.55;;;4.60;;
7406;SDS011;3745;56.964;24.128;2022-07-21T15:37:07;5.47;;;4.57;;
7406;SDS011;3745;56.964;24.128;2022-07-21T15:39:32;5.60;;;4.90;;
7406;SDS011;3745;56.964;24.128;2022-07-21T15:41:59;5.38;;;4.70;;
7406;SDS011;3745;56.964;24.128;2022-07-21T15:44:25;8.98;;;5.20;;
7406;SDS011;3745;56.964;24.128;2022-07-21T15:46:53;6.22;;;5.72;;